sensor_id;sensor_type;location;lat;lon;timestamp;temperature;humidity
41644;DHT22;44236;48.098;11.582;2023-05-10T00:01:43;21.50;55.20
41644;DHT22;44236;48.098;11.582;2023-05-10T00:04:09;21.50;55.30
41644;DHT22;44236;48.098;11.582;2023-05-10T00:06:34;21.50;55.20
41644;DHT22;44236;48.098;11.582;2023-05-10T00:09:00;21.40;55.20
41644;DHT22;44236;48.098;11.582;2023-05-10T00:11:26;21.50;55.40
41644;DHT22;44236;48.098;11.582;2023-05-10T00:13:52;21.50;55.30
41644;DHT22;44236;48.098;11.582;2023-05-10T00:16:17;21.50;55.40
41644;DHT22;44236;48.098;11.582;2023-05-10T00:18:43;21.50;55.50
41644;DHT22;44236;48.098;11.582;2023-05-10T00:21:08;21.50;55.40
41644;DHT22;44236;48.098;11.582;2023-05-10T00:23:34;21.50;55.40
41644;DHT22;44236;48.098;11.582;2023-05-10T00:26:00;21.40;55.40
41644;DHT22;44236;48.098;11.582;2023-05-10T00:28:27;21.50;55.60
41644;DHT22;44236;48.098;11.582;2023-05-10T00:30:53;21.40;55.30
41644;DHT22;44236;48.098;11.582;2023-05-10T00:33:19;21.50;55.50
41644;DHT22;44236;48.098;11.582;2023-05-10T00:35:45;21.40;55.40
41644;DHT22;44236;48.098;11.582;2023-05-10T00:38:10;21.40;55.60
41644;DHT22;44236;48.098;11.582;2023-05-10T00:40:36;21.40;55.20
41644;DHT22;44236;48.098;11.582;2023-05-10T00:43:04;21.40;55.60
41644;DHT22;44236;48.098;11.582;2023-05-10T00:45:32;21.40;55.60
41644;DHT22;44236;48.098;11.582;2023-05-10T00:48:00;21.40;55.60
41644;DHT22;44236;48.098;11.582;2023-05-10T00:50:26;21.40;55.70
41644;DHT22;44236;48.098;11.582;2023-05-10T00:52:52;21.40;55.60
41644;DHT22;44236;48.098;11.582;2023-05-10T00:55:18;21.40;55.60
41644;DHT22;44236;48.098;11.582;2023-05-10T00:57:43;21.40;55.70
41644;DHT22;44236;48.098;11.582;2023-05-10T01:00:10;21.40;55.60
41644;DHT22;44236;48.098;11.582;2023-05-10T01:02:36;21.40;55.80
41644;DHT22;44236;48.098;11.582;2023-05-10T01:05:03;21.40;55.80
41644;DHT22;44236;48.098;11.582;2023-05-10T01:07:31;21.40;55.60
41644;DHT22;44236;48.098;11.582;2023-05-10T01:09:57;21.40;55.70
41644;DHT22;44236;48.098;11.582;2023-05-10T01:12:23;21.40;55.80
41644;DHT22;44236;48.098;11.582;2023-05-10T01:14:48;21.40;55.80
41644;DHT22;44236;48.098;11.582;2023-05-10T01:17:14;21.40;55.90
41644;DHT22;44236;48.098;11.582;2023-05-10T01:19:41;21.40;56.00
41644;DHT22;44236;48.098;11.582;2023-05-10T01:25:27;21.40;55.70
41644;DHT22;44236;48.098;11.582;2023-05-10T01:28:07;21.40;55.90
41644;DHT22;44236;48.098;11.582;2023-05-10T01:33:39;21.40;55.90
41644;DHT22;44236;48.098;11.582;2023-05-10T01:36:27;21.40;56.00
41644;DHT22;44236;48.098;11.582;2023-05-10T01:39:14;21.40;55.80
41644;DHT22;44236;48.098;11.582;2023-05-10T01:42:03;21.40;56.10
41644;DHT22;44236;48.098;11.582;2023-05-10T01:47:10;21.30;56.10
41644;DHT22;44236;48.098;11.582;2023-05-10T01:49:49;21.30;56.00
41644;DHT22;44236;48.098;11.582;2023-05-10T01:52:17;21.30;56.10
41644;DHT22;44236;48.098;11.582;2023-05-10T01:55:01;21.30;56.00
41644;DHT22;44236;48.098;11.582;2023-05-10T01:57:33;21.30;56.10
41644;DHT22;44236;48.098;11.582;2023-05-10T02:00:00;21.30;56.00
41644;DHT22;44236;48.098;11.582;2023-05-10T02:02:27;21.30;56.10
41644;DHT22;44236;48.098;11.582;2023-05-10T02:04:54;21.30;56.00
41644;DHT22;44236;48.098;11.582;2023-05-10T02:07:21;21.30;56.10
41644;DHT22;44236;48.098;11.582;2023-05-10T02:09:48;21.30;56.20
41644;DHT22;44236;48.098;11.582;2023-05-10T02:12:15;21.30;56.00
41644;DHT22;44236;48.098;11.582;2023-05-10T02:14:42;21.30;56.10
41644;DHT22;44236;48.098;11.582;2023-05-10T02:17:09;21.30;55.90
41644;DHT22;44236;48.098;11.582;2023-05-10T02:19:37;21.30;56.10
41644;DHT22;44236;48.098;11.582;2023-05-10T02:22:04;21.30;56.00
41644;DHT22;44236;48.098;11.582;2023-05-10T02:24:30;21.30;56.10
41644;DHT22;44236;48.098;11.582;2023-05-10T02:26:57;21.30;55.90
41644;DHT22;44236;48.098;11.582;2023-05-10T02:29:25;21.30;56.10
41644;DHT22;44236;48.098;11.582;2023-05-10T02:31:54;21.30;56.30
41644;DHT22;44236;48.098;11.582;2023-05-10T02:34:22;21.30;56.20
41644;DHT22;44236;48.098;11.582;2023-05-10T02:36:48;21.30;56.10
41644;DHT22;44236;48.098;11.582;2023-05-10T02:39:15;21.30;56.10
41644;DHT22;44236;48.098;11.582;2023-05-10T02:41:42;21.30;56.10
41644;DHT22;44236;48.098;11.582;2023-05-10T02:44:09;21.30;56.10
41644;DHT22;44236;48.098;11.582;2023-05-10T02:46:35;21.30;56.10
41644;DHT22;44236;48.098;11.582;2023-05-10T02:49:03;21.30;56.20
41644;DHT22;44236;48.098;11.582;2023-05-10T02:51:32;21.20;56.10
41644;DHT22;44236;48.098;11.582;2023-05-10T02:54:10;21.30;56.10
41644;DHT22;44236;48.098;11.582;2023-05-10T02:56:42;21.30;56.70
41644;DHT22;44236;48.098;11.582;2023-05-10T02:59:08;21.30;56.10
41644;DHT22;44236;48.098;11.582;2023-05-10T03:01:34;21.30;56.20
41644;DHT22;44236;48.098;11.582;2023-05-10T03:04:00;21.20;56.20
41644;DHT22;44236;48.098;11.582;2023-05-10T03:06:25;21.20;56.20
41644;DHT22;44236;48.098;11.582;2023-05-10T03:08:51;21.20;56.30
41644;DHT22;44236;48.098;11.582;2023-05-10T03:11:39;21.20;56.30
41644;DHT22;44236;48.098;11.582;2023-05-10T03:17:39;21.20;56.20
41644;DHT22;44236;48.098;11.582;2023-05-10T03:19:57;21.20;56.30
41644;DHT22;44236;48.098;11.582;2023-05-10T03:22:27;21.20;56.30
41644;DHT22;44236;48.098;11.582;2023-05-10T03:24:55;21.20;56.10
41644;DHT22;44236;48.098;11.582;2023-05-10T03:27:23;21.20;56.20
41644;DHT22;44236;48.098;11.582;2023-05-10T03:29:51;21.20;56.20
41644;DHT22;44236;48.098;11.582;2023-05-10T03:32:18;21.20;56.10
41644;DHT22;44236;48.098;11.582;2023-05-10T03:34:43;21.20;56.20
41644;DHT22;44236;48.098;11.582;2023-05-10T03:37:09;21.20;56.20
41644;DHT22;44236;48.098;11.582;2023-05-10T03:39:35;21.20;56.20
41644;DHT22;44236;48.098;11.582;2023-05-10T03:42:00;21.20;56.20
41644;DHT22;44236;48.098;11.582;2023-05-10T03:44:29;21.20;56.10
41644;DHT22;44236;48.098;11.582;2023-05-10T03:46:55;21.20;56.20
41644;DHT22;44236;48.098;11.582;2023-05-10T03:49:22;21.20;56.20
41644;DHT22;44236;48.098;11.582;2023-05-10T03:51:48;21.20;56.20
41644;DHT22;44236;48.098;11.582;2023-05-10T03:54:13;21.20;56.30
41644;DHT22;44236;48.098;11.582;2023-05-10T03:56:39;21.20;56.20
41644;DHT22;44236;48.098;11.582;2023-05-10T03:59:04;21.20;56.30
41644;DHT22;44236;48.098;11.582;2023-05-10T04:01:33;21.20;56.10
41644;DHT22;44236;48.098;11.582;2023-05-10T04:03:59;21.10;56.00
41644;DHT22;44236;48.098;11.582;2023-05-10T04:06:27;21.20;56.10
41644;DHT22;44236;48.098;11.582;2023-05-10T04:08:52;21.10;56.00
41644;DHT22;44236;48.098;11.582;2023-05-10T04:11:19;21.10;56.00
41644;DHT22;44236;48.098;11.582;2023-05-10T04:13:47;21.20;56.10
41644;DHT22;44236;48.098;11.582;2023-05-10T04:16:12;21.10;56.20
41644;DHT22;44236;48.098;11.582;2023-05-10T04:18:38;21.20;56.20
41644;DHT22;44236;48.098;11.582;2023-05-10T04:21:10;21.20;56.20
41644;DHT22;44236;48.098;11.582;2023-05-10T04:23:36;21.10;56.10
41644;DHT22;44236;48.098;11.582;2023-05-10T04:26:02;21.10;56.30
41644;DHT22;44236;48.098;11.582;2023-05-10T04:28:27;21.10;56.10
41644;DHT22;44236;48.098;11.582;2023-05-10T04:30:53;21.10;56.10
41644;DHT22;44236;48.098;11.582;2023-05-10T04:33:18;21.10;56.10
41644;DHT22;44236;48.098;11.582;2023-05-10T04:35:44;21.10;55.90
41644;DHT22;44236;48.098;11.582;2023-05-10T04:38:10;21.10;56.00
41644;DHT22;44236;48.098;11.582;2023-05-10T04:40:36;21.10;55.80
41644;DHT22;44236;48.098;11.582;2023-05-10T04:43:01;21.10;56.10
41644;DHT22;44236;48.098;11.582;2023-05-10T04:45:27;21.10;56.00
41644;DHT22;44236;48.098;11.582;2023-05-10T04:47:52;21.10;56.00
41644;DHT22;44236;48.098;11.582;2023-05-10T04:50:18;21.10;55.90
41644;DHT22;44236;48.098;11.582;2023-05-10T04:52:44;21.10;55.80
41644;DHT22;44236;48.098;11.582;2023-05-10T04:55:10;21.20;55.90
41644;DHT22;44236;48.098;11.582;2023-05-10T04:57:35;21.20;55.90
41644;DHT22;44236;48.098;11.582;2023-05-10T05:00:01;21.20;56.10
41644;DHT22;44236;48.098;11.582;2023-05-10T05:02:27;21.20;57.20
41644;DHT22;44236;48.098;11.582;2023-05-10T05:04:53;21.00;57.70
41644;DHT22;44236;48.098;11.582;2023-05-10T05:07:18;20.80;58.20
41644;DHT22;44236;48.098;11.582;2023-05-10T05:09:44;20.70;58.90
41644;DHT22;44236;48.098;11.582;2023-05-10T05:12:09;20.70;58.80
41644;DHT22;44236;48.098;11.582;2023-05-10T05:14:39;20.70;58.00
41644;DHT22;44236;48.098;11.582;2023-05-10T05:17:05;20.80;58.20
41644;DHT22;44236;48.098;11.582;2023-05-10T05:19:31;20.90;58.40
41644;DHT22;44236;48.098;11.582;2023-05-10T05:21:57;20.90;57.80
41644;DHT22;44236;48.098;11.582;2023-05-10T05:24:22;21.00;57.60
41644;DHT22;44236;48.098;11.582;2023-05-10T05:26:48;21.00;57.40
41644;DHT22;44236;48.098;11.582;2023-05-10T05:29:14;21.00;57.30
41644;DHT22;44236;48.098;11.582;2023-05-10T05:31:39;21.00;57.50
41644;DHT22;44236;48.098;11.582;2023-05-10T05:34:05;21.00;57.50
41644;DHT22;44236;48.098;11.582;2023-05-10T05:36:31;21.10;57.50
41644;DHT22;44236;48.098;11.582;2023-05-10T05:38:57;21.10;57.60
41644;DHT22;44236;48.098;11.582;2023-05-10T05:41:22;21.10;57.60
41644;DHT22;44236;48.098;11.582;2023-05-10T05:43:49;21.10;57.60
41644;DHT22;44236;48.098;11.582;2023-05-10T05:46:15;21.10;57.40
41644;DHT22;44236;48.098;11.582;2023-05-10T05:48:41;21.10;56.90
41644;DHT22;44236;48.098;11.582;2023-05-10T05:51:06;21.10;56.60
41644;DHT22;44236;48.098;11.582;2023-05-10T05:53:32;21.10;56.30
41644;DHT22;44236;48.098;11.582;2023-05-10T05:55:58;21.10;56.80
41644;DHT22;44236;48.098;11.582;2023-05-10T05:58:25;21.10;57.10
41644;DHT22;44236;48.098;11.582;2023-05-10T06:00:51;21.10;57.30
41644;DHT22;44236;48.098;11.582;2023-05-10T06:03:20;21.10;57.10
41644;DHT22;44236;48.098;11.582;2023-05-10T06:05:46;21.10;57.20
41644;DHT22;44236;48.098;11.582;2023-05-10T06:08:11;21.10;57.10
41644;DHT22;44236;48.098;11.582;2023-05-10T06:10:37;21.10;57.20
41644;DHT22;44236;48.098;11.582;2023-05-10T06:13:02;21.10;57.00
41644;DHT22;44236;48.098;11.582;2023-05-10T06:15:28;21.10;56.90
41644;DHT22;44236;48.098;11.582;2023-05-10T06:17:54;21.10;57.00
41644;DHT22;44236;48.098;11.582;2023-05-10T06:20:19;21.10;56.90
41644;DHT22;44236;48.098;11.582;2023-05-10T06:22:45;21.10;57.10
41644;DHT22;44236;48.098;11.582;2023-05-10T06:25:11;21.10;57.10
41644;DHT22;44236;48.098;11.582;2023-05-10T06:27:36;21.10;57.00
41644;DHT22;44236;48.098;11.582;2023-05-10T06:30:02;21.10;57.10
41644;DHT22;44236;48.098;11.582;2023-05-10T06:32:28;21.10;57.00
41644;DHT22;44236;48.098;11.582;2023-05-10T06:34:54;21.10;57.10
41644;DHT22;44236;48.098;11.582;2023-05-10T06:37:20;21.10;57.00
41644;DHT22;44236;48.098;11.582;2023-05-10T06:39:45;21.10;57.10
41644;DHT22;44236;48.098;11.582;2023-05-10T06:42:11;21.10;57.10
41644;DHT22;44236;48.098;11.582;2023-05-10T06:44:37;21.10;57.20
41644;DHT22;44236;48.098;11.582;2023-05-10T06:47:02;21.10;57.20
41644;DHT22;44236;48.098;11.582;2023-05-10T06:49:28;21.10;57.10
41644;DHT22;44236;48.098;11.582;2023-05-10T06:51:55;21.10;57.20
41644;DHT22;44236;48.098;11.582;2023-05-10T06:54:21;21.10;57.20
41644;DHT22;44236;48.098;11.582;2023-05-10T06:56:46;21.10;57.60
41644;DHT22;44236;48.098;11.582;2023-05-10T06:59:12;21.10;57.00
41644;DHT22;44236;48.098;11.582;2023-05-10T07:01:39;21.10;56.80
41644;DHT22;44236;48.098;11.582;2023-05-10T07:04:04;21.20;57.20
41644;DHT22;44236;48.098;11.582;2023-05-10T07:06:30;21.20;57.00
41644;DHT22;44236;48.098;11.582;2023-05-10T07:08:56;21.20;57.10
41644;DHT22;44236;48.098;11.582;2023-05-10T07:11:22;21.20;57.20
41644;DHT22;44236;48.098;11.582;2023-05-10T07:13:48;21.20;57.20
41644;DHT22;44236;48.098;11.582;2023-05-10T07:16:13;21.20;57.00
41644;DHT22;44236;48.098;11.582;2023-05-10T07:18:39;21.20;57.10
41644;DHT22;44236;48.098;11.582;2023-05-10T07:21:04;21.20;57.10
41644;DHT22;44236;48.098;11.582;2023-05-10T07:23:30;21.20;56.90
41644;DHT22;44236;48.098;11.582;2023-05-10T07:25:56;21.20;57.00
41644;DHT22;44236;48.098;11.582;2023-05-10T07:28:23;21.20;57.10
41644;DHT22;44236;48.098;11.582;2023-05-10T07:30:49;21.20;57.00
41644;DHT22;44236;48.098;11.582;2023-05-10T07:33:15;21.20;57.10
41644;DHT22;44236;48.098;11.582;2023-05-10T07:35:41;21.20;57.10
41644;DHT22;44236;48.098;11.582;2023-05-10T07:38:07;21.20;57.00
41644;DHT22;44236;48.098;11.582;2023-05-10T07:40:32;21.20;57.00
41644;DHT22;44236;48.098;11.582;2023-05-10T07:42:58;21.20;56.80
41644;DHT22;44236;48.098;11.582;2023-05-10T07:45:25;21.20;57.10
41644;DHT22;44236;48.098;11.582;2023-05-10T07:47:50;21.20;57.10
41644;DHT22;44236;48.098;11.582;2023-05-10T07:50:16;21.30;57.00
41644;DHT22;44236;48.098;11.582;2023-05-10T07:52:42;21.30;57.00
41644;DHT22;44236;48.098;11.582;2023-05-10T07:55:08;21.30;56.80
41644;DHT22;44236;48.098;11.582;2023-05-10T07:57:34;21.30;56.80
41644;DHT22;44236;48.098;11.582;2023-05-10T08:00:03;21.30;56.80
41644;DHT22;44236;48.098;11.582;2023-05-10T08:02:29;21.40;56.70
41644;DHT22;44236;48.098;11.582;2023-05-10T08:05:07;21.40;56.60
41644;DHT22;44236;48.098;11.582;2023-05-10T08:07:36;21.40;56.60
41644;DHT22;44236;48.098;11.582;2023-05-10T08:10:03;21.40;56.50
41644;DHT22;44236;48.098;11.582;2023-05-10T08:12:29;21.40;56.40
41644;DHT22;44236;48.098;11.582;2023-05-10T08:14:55;21.50;56.50
41644;DHT22;44236;48.098;11.582;2023-05-10T08:17:21;21.50;56.40
41644;DHT22;44236;48.098;11.582;2023-05-10T08:19:46;21.50;56.40
41644;DHT22;44236;48.098;11.582;2023-05-10T08:22:12;21.50;56.40
41644;DHT22;44236;48.098;11.582;2023-05-10T08:24:38;21.50;56.30
41644;DHT22;44236;48.098;11.582;2023-05-10T08:27:07;21.50;56.30
41644;DHT22;44236;48.098;11.582;2023-05-10T08:29:34;21.50;56.30
41644;DHT22;44236;48.098;11.582;2023-05-10T08:31:59;21.50;56.30
41644;DHT22;44236;48.098;11.582;2023-05-10T08:34:26;21.50;56.40
41644;DHT22;44236;48.098;11.582;2023-05-10T08:36:52;21.50;56.20
41644;DHT22;44236;48.098;11.582;2023-05-10T08:39:18;21.50;56.30
41644;DHT22;44236;48.098;11.582;2023-05-10T08:41:44;21.40;56.20
41644;DHT22;44236;48.098;11.582;2023-05-10T08:44:10;21.40;56.10
41644;DHT22;44236;48.098;11.582;2023-05-10T08:46:37;21.40;56.30
41644;DHT22;44236;48.098;11.582;2023-05-10T08:49:07;21.40;56.20
41644;DHT22;44236;48.098;11.582;2023-05-10T08:51:36;21.40;56.30
41644;DHT22;44236;48.098;11.582;2023-05-10T08:54:05;21.40;56.30
41644;DHT22;44236;48.098;11.582;2023-05-10T08:56:31;21.40;56.30
41644;DHT22;44236;48.098;11.582;2023-05-10T08:58:57;21.40;56.40
41644;DHT22;44236;48.098;11.582;2023-05-10T09:01:23;21.40;56.30
41644;DHT22;44236;48.098;11.582;2023-05-10T09:03:50;21.30;56.10
41644;DHT22;44236;48.098;11.582;2023-05-10T09:06:16;21.40;56.20
41644;DHT22;44236;48.098;11.582;2023-05-10T09:08:42;21.40;56.10
41644;DHT22;44236;48.098;11.582;2023-05-10T09:11:09;21.40;56.10
41644;DHT22;44236;48.098;11.582;2023-05-10T09:13:35;21.30;56.00
41644;DHT22;44236;48.098;11.582;2023-05-10T09:16:02;21.30;56.00
41644;DHT22;44236;48.098;11.582;2023-05-10T09:18:28;21.30;56.00
41644;DHT22;44236;48.098;11.582;2023-05-10T09:20:54;21.40;56.20
41644;DHT22;44236;48.098;11.582;2023-05-10T09:23:20;21.40;56.10
41644;DHT22;44236;48.098;11.582;2023-05-10T09:25:46;21.30;55.90
41644;DHT22;44236;48.098;11.582;2023-05-10T09:28:12;21.30;56.00
41644;DHT22;44236;48.098;11.582;2023-05-10T09:30:38;21.30;55.90
41644;DHT22;44236;48.098;11.582;2023-05-10T09:33:04;21.30;55.70
41644;DHT22;44236;48.098;11.582;2023-05-10T09:35:32;21.30;55.80
41644;DHT22;44236;48.098;11.582;2023-05-10T09:38:03;21.30;55.80
41644;DHT22;44236;48.098;11.582;2023-05-10T09:40:30;21.30;55.90
41644;DHT22;44236;48.098;11.582;2023-05-10T09:45:31;21.30;55.80
41644;DHT22;44236;48.098;11.582;2023-05-10T09:47:58;21.30;55.80
41644;DHT22;44236;48.098;11.582;2023-05-10T09:50:25;21.30;56.00
41644;DHT22;44236;48.098;11.582;2023-05-10T09:52:54;21.30;55.90
41644;DHT22;44236;48.098;11.582;2023-05-10T09:55:25;21.30;55.90
41644;DHT22;44236;48.098;11.582;2023-05-10T09:57:59;21.30;55.90
41644;DHT22;44236;48.098;11.582;2023-05-10T10:00:25;21.40;56.00
41644;DHT22;44236;48.098;11.582;2023-05-10T10:02:55;21.40;55.90
41644;DHT22;44236;48.098;11.582;2023-05-10T10:05:34;21.40;56.40
41644;DHT22;44236;48.098;11.582;2023-05-10T10:08:02;21.40;55.90
41644;DHT22;44236;48.098;11.582;2023-05-10T10:10:29;21.40;55.90
41644;DHT22;44236;48.098;11.582;2023-05-10T10:12:56;21.40;55.90
41644;DHT22;44236;48.098;11.582;2023-05-10T10:15:22;21.40;55.80
41644;DHT22;44236;48.098;11.582;2023-05-10T10:17:49;21.40;55.70
41644;DHT22;44236;48.098;11.582;2023-05-10T10:20:16;21.40;55.80
41644;DHT22;44236;48.098;11.582;2023-05-10T10:22:42;21.40;55.80
41644;DHT22;44236;48.098;11.582;2023-05-10T10:25:12;21.40;55.80
41644;DHT22;44236;48.098;11.582;2023-05-10T10:35:45;21.40;55.70
41644;DHT22;44236;48.098;11.582;2023-05-10T10:38:12;21.40;55.70
41644;DHT22;44236;48.098;11.582;2023-05-10T10:40:38;21.40;55.60
41644;DHT22;44236;48.098;11.582;2023-05-10T10:43:26;21.40;55.60
41644;DHT22;44236;48.098;11.582;2023-05-10T10:46:11;21.50;55.60
41644;DHT22;44236;48.098;11.582;2023-05-10T10:48:50;21.50;55.60
41644;DHT22;44236;48.098;11.582;2023-05-10T10:51:17;21.50;55.50
41644;DHT22;44236;48.098;11.582;2023-05-10T10:53:43;21.50;55.60
41644;DHT22;44236;48.098;11.582;2023-05-10T10:56:11;21.50;55.50
41644;DHT22;44236;48.098;11.582;2023-05-10T10:58:39;21.50;55.60
41644;DHT22;44236;48.098;11.582;2023-05-10T11:01:16;21.50;55.60
41644;DHT22;44236;48.098;11.582;2023-05-10T11:06:35;21.50;55.60
41644;DHT22;44236;48.098;11.582;2023-05-10T11:11:34;21.50;55.70
41644;DHT22;44236;48.098;11.582;2023-05-10T11:14:07;21.50;55.70
41644;DHT22;44236;48.098;11.582;2023-05-10T11:16:42;21.50;55.60
41644;DHT22;44236;48.098;11.582;2023-05-10T11:19:10;21.50;55.60
41644;DHT22;44236;48.098;11.582;2023-05-10T11:22:11;21.50;55.70
41644;DHT22;44236;48.098;11.582;2023-05-10T11:24:38;21.50;55.50
41644;DHT22;44236;48.098;11.582;2023-05-10T11:27:04;21.40;55.50
41644;DHT22;44236;48.098;11.582;2023-05-10T11:29:29;21.40;55.50
41644;DHT22;44236;48.098;11.582;2023-05-10T11:31:58;21.40;55.30
41644;DHT22;44236;48.098;11.582;2023-05-10T11:34:31;21.40;55.40
41644;DHT22;44236;48.098;11.582;2023-05-10T11:37:00;21.40;55.30
41644;DHT22;44236;48.098;11.582;2023-05-10T11:39:30;21.40;55.50
41644;DHT22;44236;48.098;11.582;2023-05-10T11:41:57;21.40;55.60
41644;DHT22;44236;48.098;11.582;2023-05-10T11:44:28;21.40;55.60
41644;DHT22;44236;48.098;11.582;2023-05-10T11:46:54;21.40;55.60
41644;DHT22;44236;48.098;11.582;2023-05-10T11:49:20;21.40;55.70
41644;DHT22;44236;48.098;11.582;2023-05-10T11:51:48;21.40;55.60
41644;DHT22;44236;48.098;11.582;2023-05-10T11:54:13;21.40;55.60
41644;DHT22;44236;48.098;11.582;2023-05-10T11:56:40;21.40;55.50
41644;DHT22;44236;48.098;11.582;2023-05-10T11:59:06;21.40;55.50
41644;DHT22;44236;48.098;11.582;2023-05-10T12:01:31;21.40;55.50
41644;DHT22;44236;48.098;11.582;2023-05-10T12:03:58;21.40;55.70
41644;DHT22;44236;48.098;11.582;2023-05-10T12:06:30;21.40;55.40
41644;DHT22;44236;48.098;11.582;2023-05-10T12:08:56;21.40;55.40
41644;DHT22;44236;48.098;11.582;2023-05-10T12:11:25;21.40;55.40
41644;DHT22;44236;48.098;11.582;2023-05-10T12:13:51;21.40;55.50
41644;DHT22;44236;48.098;11.582;2023-05-10T12:16:19;21.40;55.50
41644;DHT22;44236;48.098;11.582;2023-05-10T12:18:45;21.40;55.50
41644;DHT22;44236;48.098;11.582;2023-05-10T12:21:13;21.40;55.40
41644;DHT22;44236;48.098;11.582;2023-05-10T12:23:41;21.40;55.50
41644;DHT22;44236;48.098;11.582;2023-05-10T12:26:09;21.40;55.40
41644;DHT22;44236;48.098;11.582;2023-05-10T12:28:38;21.40;55.50
41644;DHT22;44236;48.098;11.582;2023-05-10T12:31:05;21.40;55.30
41644;DHT22;44236;48.098;11.582;2023-05-10T12:33:42;21.40;55.40
41644;DHT22;44236;48.098;11.582;2023-05-10T12:36:09;21.40;55.40
41644;DHT22;44236;48.098;11.582;2023-05-10T12:38:37;21.40;55.40
41644;DHT22;44236;48.098;11.582;2023-05-10T12:41:14;21.40;55.40
41644;DHT22;44236;48.098;11.582;2023-05-10T12:43:40;21.40;55.30
41644;DHT22;44236;48.098;11.582;2023-05-10T12:46:16;21.40;55.40
41644;DHT22;44236;48.098;11.582;2023-05-10T12:48:43;21.40;55.20
41644;DHT22;44236;48.098;11.582;2023-05-10T12:51:10;21.40;55.30
41644;DHT22;44236;48.098;11.582;2023-05-10T12:53:38;21.40;55.40
41644;DHT22;44236;48.098;11.582;2023-05-10T12:56:05;21.40;55.30
41644;DHT22;44236;48.098;11.582;2023-05-10T12:58:30;21.30;55.30
41644;DHT22;44236;48.098;11.582;2023-05-10T13:00:57;21.40;55.30
41644;DHT22;44236;48.098;11.582;2023-05-10T13:03:23;21.40;55.30
41644;DHT22;44236;48.098;11.582;2023-05-10T13:05:49;21.40;55.20
41644;DHT22;44236;48.098;11.582;2023-05-10T13:08:15;21.40;55.20
41644;DHT22;44236;48.098;11.582;2023-05-10T13:10:40;21.30;55.30
41644;DHT22;44236;48.098;11.582;2023-05-10T13:13:06;21.30;55.30
41644;DHT22;44236;48.098;11.582;2023-05-10T13:15:33;21.40;55.00
41644;DHT22;44236;48.098;11.582;2023-05-10T13:17:58;21.30;55.20
41644;DHT22;44236;48.098;11.582;2023-05-10T13:20:24;21.30;55.20
41644;DHT22;44236;48.098;11.582;2023-05-10T13:22:50;21.40;55.20
41644;DHT22;44236;48.098;11.582;2023-05-10T13:25:16;21.30;55.20
41644;DHT22;44236;48.098;11.582;2023-05-10T13:27:42;21.30;55.20
41644;DHT22;44236;48.098;11.582;2023-05-10T13:30:08;21.30;55.20
41644;DHT22;44236;48.098;11.582;2023-05-10T13:32:34;21.30;55.10
41644;DHT22;44236;48.098;11.582;2023-05-10T13:35:01;21.30;55.10
41644;DHT22;44236;48.098;11.582;2023-05-10T13:37:28;21.30;55.00
41644;DHT22;44236;48.098;11.582;2023-05-10T13:39:54;21.30;55.20
41644;DHT22;44236;48.098;11.582;2023-05-10T13:42:22;21.30;55.10
41644;DHT22;44236;48.098;11.582;2023-05-10T13:44:49;21.30;55.10
41644;DHT22;44236;48.098;11.582;2023-05-10T13:47:14;21.30;55.10
41644;DHT22;44236;48.098;11.582;2023-05-10T13:49:40;21.30;55.10
41644;DHT22;44236;48.098;11.582;2023-05-10T13:52:06;21.30;55.20
41644;DHT22;44236;48.098;11.582;2023-05-10T13:54:35;21.30;55.10
41644;DHT22;44236;48.098;11.582;2023-05-10T13:57:01;21.30;55.10
41644;DHT22;44236;48.098;11.582;2023-05-10T13:59:28;21.30;55.30
41644;DHT22;44236;48.098;11.582;2023-05-10T14:01:54;21.20;55.20
41644;DHT22;44236;48.098;11.582;2023-05-10T14:04:19;21.00;55.70
41644;DHT22;44236;48.098;11.582;2023-05-10T14:06:45;20.70;55.80
41644;DHT22;44236;48.098;11.582;2023-05-10T14:09:11;20.60;56.90
41644;DHT22;44236;48.098;11.582;2023-05-10T14:11:37;20.70;57.10
41644;DHT22;44236;48.098;11.582;2023-05-10T14:14:02;20.70;57.30
41644;DHT22;44236;48.098;11.582;2023-05-10T14:16:28;20.80;57.20
41644;DHT22;44236;48.098;11.582;2023-05-10T14:18:54;20.80;57.00
41644;DHT22;44236;48.098;11.582;2023-05-10T14:21:20;20.90;56.50
41644;DHT22;44236;48.098;11.582;2023-05-10T14:23:45;21.00;56.20
41644;DHT22;44236;48.098;11.582;2023-05-10T14:26:11;21.00;56.20
41644;DHT22;44236;48.098;11.582;2023-05-10T14:28:37;21.00;56.00
41644;DHT22;44236;48.098;11.582;2023-05-10T14:31:02;21.10;55.80
41644;DHT22;44236;48.098;11.582;2023-05-10T14:33:28;21.10;56.00
41644;DHT22;44236;48.098;11.582;2023-05-10T14:35:54;21.10;56.00
41644;DHT22;44236;48.098;11.582;2023-05-10T14:38:22;21.10;56.00
41644;DHT22;44236;48.098;11.582;2023-05-10T14:40:47;21.10;56.00
41644;DHT22;44236;48.098;11.582;2023-05-10T14:43:13;21.10;56.00
41644;DHT22;44236;48.098;11.582;2023-05-10T14:45:38;21.10;56.10
41644;DHT22;44236;48.098;11.582;2023-05-10T14:48:04;21.10;56.10
41644;DHT22;44236;48.098;11.582;2023-05-10T14:50:30;21.10;56.00
41644;DHT22;44236;48.098;11.582;2023-05-10T14:52:57;21.20;56.20
41644;DHT22;44236;48.098;11.582;2023-05-10T14:55:22;21.10;56.30
41644;DHT22;44236;48.098;11.582;2023-05-10T14:57:48;21.20;56.40
41644;DHT22;44236;48.098;11.582;2023-05-10T15:00:15;21.10;56.30
41644;DHT22;44236;48.098;11.582;2023-05-10T15:02:41;21.20;56.40
41644;DHT22;44236;48.098;11.582;2023-05-10T15:05:07;21.20;56.50
41644;DHT22;44236;48.098;11.582;2023-05-10T15:07:33;21.20;56.60
41644;DHT22;44236;48.098;11.582;2023-05-10T15:09:58;21.20;56.80
41644;DHT22;44236;48.098;11.582;2023-05-10T15:12:24;21.20;56.90
41644;DHT22;44236;48.098;11.582;2023-05-10T15:14:50;21.20;57.10
41644;DHT22;44236;48.098;11.582;2023-05-10T15:17:15;21.20;57.10
41644;DHT22;44236;48.098;11.582;2023-05-10T15:19:41;21.20;57.20
41644;DHT22;44236;48.098;11.582;2023-05-10T15:22:07;21.20;57.00
41644;DHT22;44236;48.098;11.582;2023-05-10T15:24:33;21.20;57.10
41644;DHT22;44236;48.098;11.582;2023-05-10T15:26:59;21.20;57.20
41644;DHT22;44236;48.098;11.582;2023-05-10T15:29:25;21.20;57.10
41644;DHT22;44236;48.098;11.582;2023-05-10T15:31:51;21.20;57.30
41644;DHT22;44236;48.098;11.582;2023-05-10T15:34:17;21.20;57.90
41644;DHT22;44236;48.098;11.582;2023-05-10T15:36:43;21.20;58.00
41644;DHT22;44236;48.098;11.582;2023-05-10T15:39:10;21.30;58.90
41644;DHT22;44236;48.098;11.582;2023-05-10T15:41:36;21.30;58.40
41644;DHT22;44236;48.098;11.582;2023-05-10T15:44:02;21.30;57.60